This is the latest recevied weather packets stored in our database for station/object IZ1BLA-10. If no packets are shown the sender has not sent any weather packets the latest 10 day(s).
| Time | Temp. | Humidity | Pressure | Rain* | Wind** | Luminosity | Snow |
|---|---|---|---|---|---|---|---|
| 1777815551 | 21.67° C | 37% | 1015.7 hPa | - | - | - | - |
| 1777814950 | 22.78° C | 36% | 1015.3 hPa | - | - | - | - |
| 1777814350 | 21.67° C | 37% | 1015.8 hPa | - | - | - | - |
| 1777813751 | 20.56° C | 38% | 1016.2 hPa | - | - | - | - |
| 1777813150 | 21.11° C | 37% | 1016.3 hPa | - | - | - | - |
| 1777812550 | 21.11° C | 39% | 1016.3 hPa | - | - | - | - |
| 1777811951 | 21.11° C | 38% | 1016.6 hPa | - | - | - | - |
| 1777811351 | 20.56° C | 40% | 1016.8 hPa | - | - | - | - |
| 1777810750 | 20° C | 41% | 1016.9 hPa | - | - | - | - |
| 1777810151 | 20° C | 41% | 1017.1 hPa | - | - | - | - |
| 1777809550 | 20.56° C | 42% | 1017.1 hPa | - | - | - | - |
| 1777808951 | 20° C | 42% | 1017.2 hPa | - | - | - | - |
| 1777808351 | 19.44° C | 43% | 1017.2 hPa | - | - | - | - |
| 1777807751 | 19.44° C | 44% | 1017.2 hPa | - | - | - | - |
| 1777807150 | 20° C | 43% | 1017 hPa | - | - | - | - |
| 1777806551 | 19.44° C | 44% | 1017.2 hPa | - | - | - | - |
| 1777805950 | 19.44° C | 45% | 1017.3 hPa | - | - | - | - |
| 1777805353 | 20° C | 43% | 1017.1 hPa | - | - | - | - |
| 1777804750 | 20° C | 43% | 1017.2 hPa | - | - | - | - |
| 1777804150 | 20.56° C | 41% | 1017.1 hPa | - | - | - | - |
| 1777803551 | 19.44° C | 44% | 1017.5 hPa | - | - | - | - |
| 1777802951 | 19.44° C | 43% | 1017.6 hPa | - | - | - | - |
| 1777802351 | 20.56° C | 42% | 1017.2 hPa | - | - | - | - |
| 1777801750 | 19.44° C | 45% | 1017.7 hPa | - | - | - | - |
| 1777801151 | 18.89° C | 47% | 1017.7 hPa | - | - | - | - |
* Rain since midnight (hover to see other rain measurements)
** Current wind speed in m/s (hover to see current wind gust speed)